createdAt,value
2019-04-11T00:00:37.960Z,7.90
2019-04-11T00:03:06.790Z,7.80
2019-04-11T00:05:35.586Z,7.80
2019-04-11T00:08:05.822Z,7.80
2019-04-11T00:10:35.519Z,7.60
2019-04-11T00:13:17.087Z,7.60
2019-04-11T00:15:37.060Z,7.60
2019-04-11T00:18:06.299Z,7.50
2019-04-11T00:20:36.079Z,7.40
2019-04-11T00:23:06.057Z,7.40
2019-04-11T00:25:35.820Z,7.30
2019-04-11T00:28:05.721Z,7.20
2019-04-11T00:30:34.678Z,7.20
2019-04-11T00:33:03.617Z,7.10
2019-04-11T00:35:33.493Z,7.10
2019-04-11T00:38:02.801Z,7.00
2019-04-11T00:40:31.746Z,6.90
2019-04-11T00:43:01.100Z,6.90
2019-04-11T00:45:30.070Z,6.90
2019-04-11T00:47:59.621Z,6.80
2019-04-11T00:50:30.129Z,6.90
2019-04-11T00:52:59.298Z,6.90
2019-04-11T00:55:29.347Z,7.00
2019-04-11T00:57:58.838Z,7.00
2019-04-11T01:00:27.747Z,7.00
2019-04-11T01:02:56.522Z,7.00
2019-04-11T01:05:25.628Z,7.10
2019-04-11T01:07:55.414Z,7.00
2019-04-11T01:10:25.190Z,7.10
2019-04-11T01:12:54.041Z,7.00
2019-04-11T01:15:24.334Z,7.00
2019-04-11T01:17:53.874Z,7.00
2019-04-11T01:20:23.796Z,7.00
2019-04-11T01:22:54.206Z,7.00
2019-04-11T01:25:24.312Z,7.00
2019-04-11T01:27:54.274Z,6.90
2019-04-11T01:30:33.347Z,6.90
2019-04-11T01:33:02.487Z,7.00
2019-04-11T01:35:31.430Z,7.00
2019-04-11T01:38:00.973Z,6.90
2019-04-11T01:40:29.978Z,6.90
2019-04-11T01:42:59.719Z,6.80
2019-04-11T01:45:29.554Z,6.80
2019-04-11T01:48:15.843Z,6.80
2019-04-11T01:50:45.246Z,6.80
2019-04-11T01:53:15.148Z,6.80
2019-04-11T01:55:45.032Z,6.90
2019-04-11T01:58:14.335Z,6.80
2019-04-11T02:00:54.747Z,6.80
2019-04-11T02:03:33.095Z,6.80
2019-04-11T02:06:02.351Z,6.80
2019-04-11T02:08:31.329Z,6.80
2019-04-11T02:11:01.348Z,6.70
2019-04-11T02:13:30.374Z,6.60
2019-04-11T02:16:00.332Z,6.60
2019-04-11T02:18:29.909Z,6.50
2019-04-11T02:20:58.818Z,6.50
2019-04-11T02:23:47.627Z,6.50
2019-04-11T02:26:23.550Z,6.40
2019-04-11T02:28:53.040Z,6.50
2019-04-11T02:31:23.084Z,6.50
2019-04-11T02:33:52.622Z,6.40
2019-04-11T02:36:21.668Z,6.40
2019-04-11T02:38:56.579Z,6.40
2019-04-11T02:41:21.747Z,6.30
2019-04-11T02:43:51.213Z,6.40
2019-04-11T02:46:31.919Z,6.40
2019-04-11T02:48:52.188Z,6.40
2019-04-11T02:51:22.800Z,6.40
2019-04-11T02:53:54.052Z,6.40
2019-04-11T02:56:23.800Z,6.40
2019-04-11T02:58:54.516Z,6.30
2019-04-11T03:01:24.244Z,6.20
2019-04-11T03:03:54.017Z,6.20
2019-04-11T03:06:23.474Z,6.20
2019-04-11T03:08:53.025Z,6.30
2019-04-11T03:11:24.173Z,6.30
2019-04-11T03:13:54.864Z,6.20
2019-04-11T03:16:36.431Z,6.20
2019-04-11T03:19:13.255Z,6.20
2019-04-11T03:21:26.927Z,6.20
2019-04-11T03:23:56.289Z,6.20
2019-04-11T03:26:25.243Z,6.20
2019-04-11T03:28:56.872Z,6.20
2019-04-11T03:32:05.271Z,6.10
2019-04-11T03:39:15.139Z,6.10
2019-04-11T03:41:48.818Z,6.00
2019-04-11T03:44:09.577Z,6.20
2019-04-11T03:46:48.283Z,6.20
2019-04-11T03:49:12.363Z,6.30
2019-04-11T03:51:33.848Z,6.30
2019-04-11T03:54:02.884Z,6.20
2019-04-11T03:56:32.952Z,6.10
2019-04-11T03:59:03.779Z,6.10
2019-04-11T04:01:34.050Z,6.10
2019-04-11T04:04:03.803Z,6.10
2019-04-11T04:06:33.658Z,6.10
2019-04-11T04:09:03.603Z,6.00
2019-04-11T04:11:34.238Z,6.00
2019-04-11T04:14:17.185Z,6.00
2019-04-11T04:16:56.744Z,5.90
2019-04-11T04:19:59.623Z,5.90
2019-04-11T04:22:49.587Z,5.90
2019-04-11T04:25:18.888Z,6.00
2019-04-11T04:27:49.168Z,6.00
2019-04-11T04:30:20.377Z,5.90
2019-04-11T04:32:49.365Z,5.90
2019-04-11T04:35:21.327Z,5.90
2019-04-11T04:37:49.849Z,5.90
2019-04-11T04:40:38.902Z,5.90
2019-04-11T04:42:55.298Z,5.90
2019-04-11T04:45:23.914Z,6.00
2019-04-11T04:47:58.881Z,5.90
2019-04-11T04:50:24.491Z,5.90
2019-04-11T04:52:55.746Z,5.90
2019-04-11T04:55:25.893Z,5.90
2019-04-11T04:57:55.396Z,5.90
2019-04-11T05:00:25.326Z,5.80
2019-04-11T05:02:56.526Z,5.80
2019-04-11T05:05:26.730Z,5.80
2019-04-11T05:07:56.423Z,5.90
2019-04-11T05:10:28.370Z,5.90
2019-04-11T05:12:59.056Z,5.90
2019-04-11T05:15:28.259Z,5.80
2019-04-11T05:18:00.117Z,5.80
2019-04-11T05:20:30.136Z,5.80
2019-04-11T05:22:59.998Z,5.80
2019-04-11T05:25:29.307Z,5.80
2019-04-11T05:27:58.348Z,5.80
2019-04-11T05:30:27.254Z,5.80
2019-04-11T05:32:56.126Z,5.70
2019-04-11T05:35:25.023Z,5.60
2019-04-11T05:37:54.031Z,5.60
2019-04-11T05:40:23.964Z,5.60
2019-04-11T05:42:54.135Z,5.60
2019-04-11T05:45:25.965Z,5.70
2019-04-11T05:47:56.400Z,5.70
2019-04-11T05:50:36.246Z,5.70
2019-04-11T05:53:05.683Z,5.80
2019-04-11T05:55:43.281Z,5.80
2019-04-11T05:58:13.875Z,5.80
2019-04-11T06:01:15.217Z,5.90
2019-04-11T06:03:45.484Z,6.00
2019-04-11T06:06:26.821Z,6.10
2019-04-11T06:09:00.712Z,6.10
2019-04-11T06:11:36.955Z,6.10
2019-04-11T06:14:11.720Z,6.20
2019-04-11T06:16:48.014Z,6.30
2019-04-11T06:19:33.440Z,6.30
2019-04-11T06:22:04.870Z,6.40
2019-04-11T06:25:06.171Z,6.40
2019-04-11T06:27:45.578Z,6.50
2019-04-11T06:30:32.770Z,6.70
2019-04-11T06:33:18.313Z,6.70
2019-04-11T06:36:23.102Z,6.70
2019-04-11T06:39:02.974Z,6.80
2019-04-11T06:41:54.908Z,6.90
2019-04-11T06:44:37.653Z,6.90
2019-04-11T06:47:20.963Z,6.90
2019-04-11T06:50:11.111Z,7.00
2019-04-11T06:52:41.225Z,7.00
2019-04-11T06:55:18.508Z,7.00
2019-04-11T06:57:48.057Z,7.10
2019-04-11T07:00:17.320Z,7.30
2019-04-11T07:02:52.932Z,7.40
2019-04-11T07:05:22.886Z,7.50
2019-04-11T07:07:53.683Z,7.60
2019-04-11T07:10:28.509Z,7.70
2019-04-11T07:13:12.097Z,7.80
2019-04-11T07:15:44.216Z,8.00
2019-04-11T07:18:31.270Z,7.90
2019-04-11T07:21:08.617Z,7.90
2019-04-11T07:23:55.662Z,8.10
2019-04-11T07:26:37.304Z,8.30
2019-04-11T07:29:25.782Z,8.60
2019-04-11T07:32:20.301Z,8.60
2019-04-11T07:35:17.449Z,8.60
2019-04-11T07:37:49.151Z,8.70
2019-04-11T07:40:39.203Z,8.80
2019-04-11T07:43:13.550Z,8.90
2019-04-11T07:46:03.303Z,9.00
2019-04-11T07:48:38.101Z,9.30
2019-04-11T07:51:15.387Z,9.60
2019-04-11T07:53:48.070Z,9.60
2019-04-11T07:56:31.327Z,9.60
2019-04-11T07:59:03.439Z,9.60
2019-04-11T08:01:44.751Z,9.70
2019-04-11T08:04:36.499Z,9.60
2019-04-11T08:07:24.721Z,9.60
2019-04-11T08:10:02.429Z,9.70
2019-04-11T08:12:32.054Z,9.60
2019-04-11T08:15:31.936Z,9.40
2019-04-11T08:18:04.650Z,9.40
2019-04-11T08:21:11.958Z,9.50
2019-04-11T08:23:44.126Z,9.40
2019-04-11T08:26:31.075Z,9.40
2019-04-11T08:29:07.498Z,9.30
2019-04-11T08:31:49.283Z,9.40
2019-04-11T08:34:20.205Z,9.40
2019-04-11T08:37:19.241Z,9.40
2019-04-11T08:39:51.277Z,9.50
2019-04-11T08:42:42.426Z,9.70
2019-04-11T08:45:14.297Z,9.80
2019-04-11T08:47:49.303Z,10.00
2019-04-11T08:50:20.643Z,10.30
2019-04-11T08:53:10.667Z,10.30
2019-04-11T08:55:53.103Z,10.30
2019-04-11T08:58:23.247Z,10.30
2019-04-11T09:00:57.643Z,10.40
2019-04-11T09:03:31.680Z,10.70
2019-04-11T09:06:20.793Z,10.90
2019-04-11T09:09:07.608Z,11.20
2019-04-11T09:11:45.260Z,11.50
2019-04-11T09:14:32.513Z,11.60
2019-04-11T09:17:16.481Z,11.80
2019-04-11T09:20:03.523Z,12.00
2019-04-11T09:22:41.414Z,12.30
2019-04-11T09:25:43.315Z,12.80
2019-04-11T09:28:35.561Z,12.50
2019-04-11T09:31:23.721Z,12.70
2019-04-11T09:34:17.890Z,12.50
2019-04-11T09:37:17.011Z,12.60
2019-04-11T09:40:01.639Z,12.40
2019-04-11T09:42:48.491Z,12.40
2019-04-11T09:45:52.599Z,12.40
2019-04-11T09:48:29.552Z,12.60
2019-04-11T09:51:21.240Z,12.30
2019-04-11T09:53:55.366Z,12.40
2019-04-11T09:56:58.079Z,12.50
2019-04-11T09:59:41.152Z,12.50
2019-04-11T10:02:28.447Z,12.70
2019-04-11T10:05:00.837Z,13.20
2019-04-11T10:07:37.603Z,13.40
2019-04-11T10:10:35.339Z,13.60
2019-04-11T10:13:22.615Z,13.70
2019-04-11T10:16:11.603Z,14.10
2019-04-11T10:19:03.394Z,14.00
2019-04-11T10:21:33.125Z,14.20
2019-04-11T10:24:22.706Z,14.20
2019-04-11T10:26:58.375Z,14.50
2019-04-11T10:29:45.458Z,15.00
2019-04-11T10:32:14.961Z,15.10
2019-04-11T10:34:50.802Z,15.50
2019-04-11T10:37:20.902Z,15.60
2019-04-11T10:40:08.795Z,15.80
2019-04-11T10:42:39.029Z,15.70
2019-04-11T10:45:31.150Z,15.50
2019-04-11T10:48:05.517Z,15.40
2019-04-11T10:51:08.842Z,15.90
2019-04-11T10:53:39.451Z,16.20
2019-04-11T10:56:22.213Z,16.10
2019-04-11T10:58:57.310Z,16.00
2019-04-11T11:01:54.454Z,16.50
2019-04-11T11:04:29.074Z,16.70
2019-04-11T11:07:02.327Z,16.50
2019-04-11T11:09:42.123Z,16.70
2019-04-11T11:12:23.178Z,16.80
2019-04-11T11:15:09.686Z,16.70
2019-04-11T11:18:34.973Z,16.80
2019-04-11T11:21:02.270Z,16.40
2019-04-11T11:23:49.186Z,16.10
2019-04-11T11:26:24.814Z,16.00
2019-04-11T11:29:11.600Z,15.90
2019-04-11T11:31:42.770Z,15.70
2019-04-11T11:34:19.807Z,15.60
2019-04-11T11:37:07.392Z,15.40
2019-04-11T11:39:46.952Z,15.50
2019-04-11T11:42:38.667Z,15.60
2019-04-11T11:45:15.746Z,15.60
2019-04-11T11:48:14.921Z,15.40
2019-04-11T11:50:40.566Z,15.10
2019-04-11T11:53:22.582Z,14.60
2019-04-11T11:55:51.709Z,14.60
2019-04-11T11:58:56.978Z,14.20
2019-04-11T12:01:24.134Z,14.00
2019-04-11T12:04:18.908Z,13.90
2019-04-11T12:06:49.604Z,13.80
2019-04-11T12:09:44.653Z,14.20
2019-04-11T12:12:19.728Z,14.30
2019-04-11T12:15:22.526Z,15.00
2019-04-11T12:18:07.417Z,15.70
2019-04-11T12:20:44.843Z,16.20
2019-04-11T12:23:22.707Z,16.90
2019-04-11T12:25:52.007Z,17.90
2019-04-11T12:28:47.873Z,18.70
2019-04-11T12:31:17.553Z,19.30
2019-04-11T12:34:04.502Z,19.70
2019-04-11T12:36:37.097Z,19.90
2019-04-11T12:39:41.856Z,20.00
2019-04-11T12:42:17.542Z,20.40
2019-04-11T12:45:06.337Z,20.70
2019-04-11T12:47:40.012Z,20.60
2019-04-11T12:50:28.859Z,21.10
2019-04-11T12:53:03.478Z,20.70
2019-04-11T12:55:50.394Z,19.50
2019-04-11T12:58:27.784Z,19.60
2019-04-11T13:01:08.990Z,20.60
2019-04-11T13:03:55.927Z,20.10
2019-04-11T13:06:35.568Z,19.60
2019-04-11T13:09:28.995Z,19.10
2019-04-11T13:11:58.400Z,18.50
2019-04-11T13:14:46.366Z,17.70
2019-04-11T13:17:18.818Z,17.70
2019-04-11T13:20:06.670Z,17.90
2019-04-11T13:22:35.570Z,18.10
2019-04-11T13:25:22.308Z,18.90
2019-04-11T13:27:54.026Z,19.50
2019-04-11T13:30:42.033Z,19.30
2019-04-11T13:33:14.103Z,18.20
2019-04-11T13:36:05.430Z,17.70
2019-04-11T13:38:48.532Z,18.00
2019-04-11T13:41:33.622Z,17.80
2019-04-11T13:44:27.622Z,18.20
2019-04-11T13:47:14.199Z,17.90
2019-04-11T13:49:51.632Z,17.80
2019-04-11T13:52:31.619Z,17.40
2019-04-11T13:55:18.786Z,16.70
2019-04-11T13:58:06.711Z,16.40
2019-04-11T14:00:55.237Z,16.30
2019-04-11T14:03:43.184Z,16.20
2019-04-11T14:06:18.217Z,16.20
2019-04-11T14:09:15.329Z,17.10
2019-04-11T14:11:47.032Z,18.10
2019-04-11T14:14:18.947Z,18.60
2019-04-11T14:17:07.238Z,18.30
2019-04-11T14:19:55.239Z,17.70
2019-04-11T14:22:29.197Z,17.20
2019-04-11T14:25:25.654Z,16.90
2019-04-11T14:27:57.162Z,16.60
2019-04-11T14:30:42.417Z,16.20
2019-04-11T14:33:11.204Z,16.00
2019-04-11T14:36:17.643Z,15.70
2019-04-11T14:38:51.947Z,15.50
2019-04-11T14:41:37.187Z,15.40
2019-04-11T14:44:06.063Z,15.40
2019-04-11T14:47:09.452Z,15.50
2019-04-11T14:49:40.617Z,15.80
2019-04-11T14:52:26.923Z,16.50
2019-04-11T14:54:58.521Z,16.90
2019-04-11T14:57:55.503Z,17.40
2019-04-11T15:00:33.088Z,17.90
2019-04-11T15:03:13.498Z,18.00
2019-04-11T15:05:49.239Z,18.30
2019-04-11T15:08:26.814Z,18.60
2019-04-11T15:11:27.097Z,18.80
2019-04-11T15:14:00.724Z,18.40
2019-04-11T15:17:07.110Z,18.10
2019-04-11T15:19:36.232Z,17.90
2019-04-11T15:22:26.638Z,17.30
2019-04-11T15:24:59.990Z,16.60
2019-04-11T15:27:47.967Z,16.10
2019-04-11T15:30:17.395Z,15.90
2019-04-11T15:33:11.863Z,15.50
2019-04-11T15:35:40.702Z,15.20
2019-04-11T15:38:36.338Z,15.10
2019-04-11T15:41:06.314Z,15.00
2019-04-11T15:43:52.804Z,14.80
2019-04-11T15:46:29.620Z,14.50
2019-04-11T15:49:21.958Z,14.30
2019-04-11T15:51:54.194Z,14.10
2019-04-11T15:54:42.182Z,14.00
2019-04-11T15:57:30.170Z,13.80
2019-04-11T16:00:30.706Z,13.80
2019-04-11T16:03:07.837Z,13.80
2019-04-11T16:05:54.545Z,13.70
2019-04-11T16:08:31.823Z,13.50
2019-04-11T16:11:30.220Z,13.40
2019-04-11T16:14:21.348Z,13.40
2019-04-11T16:17:13.347Z,13.30
2019-04-11T16:19:50.902Z,13.20
2019-04-11T16:22:37.910Z,13.10
2019-04-11T16:25:12.680Z,13.10
2019-04-11T16:28:07.858Z,13.00
2019-04-11T16:30:45.194Z,12.70
2019-04-11T16:33:45.832Z,12.60
2019-04-11T16:36:16.788Z,12.40
2019-04-11T16:38:59.171Z,12.50
2019-04-11T16:41:45.685Z,12.40
2019-04-11T16:44:19.786Z,12.30
2019-04-11T16:47:18.655Z,12.20
2019-04-11T16:49:47.551Z,12.10
2019-04-11T16:52:16.353Z,12.00
2019-04-11T16:54:45.602Z,11.90
2019-04-11T16:57:14.460Z,11.90
2019-04-11T16:59:43.403Z,11.80
2019-04-11T17:02:12.286Z,11.70
2019-04-11T17:04:41.184Z,11.60
2019-04-11T17:07:23.819Z,11.40
2019-04-11T17:09:56.487Z,11.30
2019-04-11T17:12:29.591Z,11.20
2019-04-11T17:15:00.990Z,11.10
2019-04-11T17:17:31.039Z,11.00
2019-04-11T17:19:59.843Z,10.80
2019-04-11T17:22:28.674Z,10.70
2019-04-11T17:24:57.623Z,10.60
2019-04-11T17:27:26.635Z,10.50
2019-04-11T17:29:55.738Z,10.40
2019-04-11T17:32:25.840Z,10.30
2019-04-11T17:34:55.369Z,10.20
2019-04-11T17:37:25.770Z,10.00
2019-04-11T17:39:54.734Z,9.90
2019-04-11T17:42:24.176Z,9.80
2019-04-11T17:44:53.007Z,9.70
2019-04-11T17:47:21.890Z,9.70
2019-04-11T17:49:50.902Z,9.60
2019-04-11T17:52:19.804Z,9.50
2019-04-11T17:54:48.601Z,9.40
2019-04-11T17:57:17.707Z,9.30
2019-04-11T17:59:48.664Z,9.20
2019-04-11T18:02:17.554Z,9.10
2019-04-11T18:04:48.026Z,9.00
2019-04-11T18:07:17.676Z,8.90
2019-04-11T18:09:46.751Z,8.90
2019-04-11T18:12:15.540Z,8.80
2019-04-11T18:14:44.406Z,8.70
2019-04-11T18:17:13.310Z,8.60
2019-04-11T18:19:42.215Z,8.50
2019-04-11T18:22:13.634Z,8.40
2019-04-11T18:24:41.839Z,8.40
2019-04-11T18:27:10.912Z,8.30
2019-04-11T18:29:39.799Z,8.20
2019-04-11T18:32:08.690Z,8.20
2019-04-11T18:34:37.635Z,8.10
2019-04-11T18:37:06.615Z,8.00
2019-04-11T18:39:36.028Z,8.00
2019-04-11T18:42:07.019Z,7.90
2019-04-11T18:44:35.915Z,7.80
2019-04-11T18:47:04.887Z,7.70
2019-04-11T18:49:33.886Z,7.70
2019-04-11T18:52:02.780Z,7.50
2019-04-11T18:54:31.747Z,7.40
2019-04-11T18:57:00.596Z,7.30
2019-04-11T18:59:31.630Z,7.30
2019-04-11T19:02:00.115Z,7.20
2019-04-11T19:04:32.678Z,7.10
2019-04-11T19:06:59.745Z,7.10
2019-04-11T19:09:28.790Z,7.00
2019-04-11T19:11:57.944Z,6.90
2019-04-11T19:14:26.783Z,6.90
2019-04-11T19:16:55.719Z,6.80
2019-04-11T19:19:27.247Z,6.70
2019-04-11T19:21:55.203Z,6.60
2019-04-11T19:24:35.068Z,6.60
2019-04-11T19:26:54.730Z,6.50
2019-04-11T19:29:25.054Z,6.50
2019-04-11T19:31:54.178Z,6.40
2019-04-11T19:34:23.051Z,6.20
2019-04-11T19:36:51.982Z,6.20
2019-04-11T19:39:23.164Z,6.20
2019-04-11T19:41:51.402Z,6.10
2019-04-11T19:44:20.183Z,6.10
2019-04-11T19:46:51.045Z,6.00
2019-04-11T19:49:19.763Z,6.00
2019-04-11T19:51:50.766Z,6.00
2019-04-11T19:54:19.140Z,5.90
2019-04-11T19:56:52.322Z,5.80
2019-04-11T19:59:21.134Z,5.80
2019-04-11T20:01:50.770Z,5.70
2019-04-11T20:04:21.715Z,5.70
2019-04-11T20:06:51.550Z,5.60
2019-04-11T20:09:20.340Z,5.60
2019-04-11T20:11:49.211Z,5.60
2019-04-11T20:14:18.006Z,5.50
2019-04-11T20:16:49.001Z,5.50
2019-04-11T20:19:17.471Z,5.30
2019-04-11T20:21:46.249Z,5.30
2019-04-11T20:24:15.202Z,5.30
2019-04-11T20:26:44.043Z,5.30
2019-04-11T20:29:12.854Z,5.20
2019-04-11T20:31:41.652Z,5.20
2019-04-11T20:34:10.555Z,5.10
2019-04-11T20:36:41.291Z,5.10
2019-04-11T20:39:09.915Z,5.10
2019-04-11T20:41:38.766Z,5.10
2019-04-11T20:44:07.690Z,5.00
2019-04-11T20:46:36.530Z,5.00
2019-04-11T20:49:05.617Z,4.90
2019-04-11T20:51:34.582Z,4.90
2019-04-11T20:54:07.045Z,4.90
2019-04-11T20:56:34.059Z,4.90
2019-04-11T20:59:02.951Z,4.90
2019-04-11T21:01:31.783Z,4.80
2019-04-11T21:04:04.540Z,4.70
2019-04-11T21:06:32.079Z,4.70
2019-04-11T21:09:03.117Z,4.70
2019-04-11T21:11:36.189Z,4.70
2019-04-11T21:14:02.752Z,4.60
2019-04-11T21:16:31.527Z,4.70
2019-04-11T21:19:00.378Z,4.70
2019-04-11T21:21:29.246Z,4.60
2019-04-11T21:24:00.351Z,4.60
2019-04-11T21:26:29.532Z,4.60
2019-04-11T21:28:58.975Z,4.60
2019-04-11T21:31:31.098Z,4.60
2019-04-11T21:34:02.329Z,4.50
2019-04-11T21:36:31.735Z,4.50
2019-04-11T21:39:03.610Z,4.60
2019-04-11T21:41:36.034Z,4.50
2019-04-11T21:44:05.858Z,4.50
2019-04-11T21:46:37.309Z,4.50
2019-04-11T21:49:06.319Z,4.50
2019-04-11T21:51:35.048Z,4.50
2019-04-11T21:54:03.891Z,4.40
2019-04-11T21:56:32.710Z,4.30
2019-04-11T21:59:01.567Z,4.20
2019-04-11T22:01:31.330Z,4.20
2019-04-11T22:04:00.272Z,4.20
2019-04-11T22:06:30.496Z,4.20
2019-04-11T22:08:59.806Z,4.10
2019-04-11T22:11:28.759Z,4.10
2019-04-11T22:13:57.610Z,4.20
2019-04-11T22:16:26.590Z,4.10
2019-04-11T22:18:55.431Z,4.10
2019-04-11T22:21:24.207Z,4.00
2019-04-11T22:23:53.074Z,4.00
2019-04-11T22:26:21.942Z,4.00
2019-04-11T22:28:54.890Z,4.00
2019-04-11T22:31:24.837Z,3.90
2019-04-11T22:34:00.810Z,3.80
2019-04-11T22:36:30.745Z,3.80
2019-04-11T22:39:01.109Z,3.80
2019-04-11T22:41:30.382Z,3.80
2019-04-11T22:43:59.435Z,3.70
2019-04-11T22:46:28.298Z,3.70
2019-04-11T22:48:57.454Z,3.60
2019-04-11T22:51:26.270Z,3.60
2019-04-11T22:54:00.253Z,3.50
2019-04-11T22:56:25.887Z,3.50
2019-04-11T22:58:54.639Z,3.40
2019-04-11T23:01:23.768Z,3.40
2019-04-11T23:03:56.484Z,3.30
2019-04-11T23:06:25.330Z,3.30
2019-04-11T23:08:54.179Z,3.30
2019-04-11T23:11:23.009Z,3.20
2019-04-11T23:13:52.099Z,3.20
2019-04-11T23:16:20.916Z,3.20
2019-04-11T23:18:49.802Z,3.20
2019-04-11T23:21:18.658Z,3.20
2019-04-11T23:23:47.498Z,3.10
2019-04-11T23:26:16.294Z,3.10
2019-04-11T23:28:46.750Z,3.00
2019-04-11T23:31:19.795Z,3.00
2019-04-11T23:33:47.287Z,3.00
2019-04-11T23:36:16.359Z,3.00
2019-04-11T23:38:45.387Z,2.90
2019-04-11T23:41:14.438Z,2.90
2019-04-11T23:43:43.240Z,2.90
2019-04-11T23:46:12.097Z,2.80
2019-04-11T23:48:40.898Z,2.70
2019-04-11T23:51:09.694Z,2.70
2019-04-11T23:53:38.542Z,2.70
2019-04-11T23:56:07.414Z,2.70
2019-04-11T23:58:36.238Z,2.70
